LCI weather

Laconia Municipal Airport
Laconia, New Hampshire, United States

Public forecast

Using degrees Fahrenheit for public forecast. Weather courtesy of forecast.io.

METAR (pilot weather report)

Retrieved 2019/05/26 11:38 UTC (0 seconds ago):

KLCI 261138Z AUTO VRB03KT 10SM FEW027 14/12 A2986 RMK AO2

TAF (pilot weather forecast)

Closest forecast is Concord Municipal Airport, 22.5 nm (41.7 km) S. Retrieved 2019/05/26 06:36 UTC (5 hours ago):

TAF KCON 260535Z 2606/2706 19007KT P6SM VCSH OVC040 FM260900 19007KT P6SM BKN025 FM261200 25007KT P6SM BKN050 FM261700 29014KT P6SM FEW250 FM270100 VRB04KT P6SM FEW250